createdAt,value
2018-04-27T00:00:11.389Z,1002.58
2018-04-27T00:01:11.413Z,1002.60
2018-04-27T00:02:11.421Z,1002.58
2018-04-27T00:03:11.442Z,1002.55
2018-04-27T00:04:11.448Z,1002.59
2018-04-27T00:05:11.531Z,1002.59
2018-04-27T00:06:11.507Z,1002.58
2018-04-27T00:07:11.499Z,1002.58
2018-04-27T00:08:11.620Z,1002.58
2018-04-27T00:09:11.537Z,1002.56
2018-04-27T00:10:11.545Z,1002.57
2018-04-27T00:11:11.583Z,1002.54
2018-04-27T00:12:11.651Z,1002.50
2018-04-27T00:13:11.611Z,1002.49
2018-04-27T00:14:11.656Z,1002.47
2018-04-27T00:15:11.631Z,1002.45
2018-04-27T00:16:11.724Z,1002.42
2018-04-27T00:17:11.800Z,1002.45
2018-04-27T00:18:11.675Z,1002.41
2018-04-27T00:19:11.719Z,1002.46
2018-04-27T00:20:11.705Z,1002.42
2018-04-27T00:21:11.857Z,1002.46
2018-04-27T00:22:11.837Z,1002.43
2018-04-27T00:23:11.754Z,1002.47
2018-04-27T00:24:11.787Z,1002.43
2018-04-27T00:25:11.789Z,1002.43
2018-04-27T00:26:11.825Z,1002.40
2018-04-27T00:27:11.825Z,1002.40
2018-04-27T00:28:11.851Z,1002.40
2018-04-27T00:29:11.852Z,1002.44
2018-04-27T00:30:11.871Z,1002.47
2018-04-27T00:31:11.903Z,1002.46
2018-04-27T00:32:11.922Z,1002.45
2018-04-27T00:33:11.977Z,1002.51
2018-04-27T00:34:11.937Z,1002.43
2018-04-27T00:35:11.957Z,1002.43
2018-04-27T00:36:11.981Z,1002.41
2018-04-27T00:37:12.073Z,1002.42
2018-04-27T00:38:12.054Z,1002.40
2018-04-27T00:39:12.017Z,1002.38
2018-04-27T00:40:12.026Z,1002.41
2018-04-27T00:41:12.042Z,1002.39
2018-04-27T00:42:12.061Z,1002.37
2018-04-27T00:43:12.088Z,1002.38
2018-04-27T00:44:12.093Z,1002.31
2018-04-27T00:45:12.104Z,1002.30
2018-04-27T00:46:12.135Z,1002.30
2018-04-27T00:47:12.135Z,1002.32
2018-04-27T00:48:12.163Z,1002.31
2018-04-27T00:49:12.267Z,1002.28
2018-04-27T00:50:12.183Z,1002.23
2018-04-27T00:51:12.220Z,1002.24
2018-04-27T00:52:12.274Z,1002.26
2018-04-27T00:53:12.290Z,1002.22
2018-04-27T00:54:12.246Z,1002.23
2018-04-27T00:55:12.263Z,1002.23
2018-04-27T00:56:12.279Z,1002.20
2018-04-27T00:57:12.342Z,1002.21
2018-04-27T00:58:12.309Z,1002.16
2018-04-27T00:59:12.320Z,1002.14
2018-04-27T01:00:12.394Z,1002.15
2018-04-27T01:01:12.447Z,1002.14
2018-04-27T01:02:12.374Z,1002.16
2018-04-27T01:03:12.476Z,1002.13
2018-04-27T01:04:12.413Z,1002.14
2018-04-27T01:05:12.432Z,1002.17
2018-04-27T01:06:12.444Z,1002.16
2018-04-27T01:07:12.489Z,1002.13
2018-04-27T01:08:12.478Z,1002.14
2018-04-27T01:09:12.481Z,1002.14
2018-04-27T01:10:12.570Z,1002.13
2018-04-27T01:11:12.518Z,1002.10
2018-04-27T01:12:12.650Z,1002.11
2018-04-27T01:13:12.546Z,1002.10
2018-04-27T01:14:12.572Z,1002.11
2018-04-27T01:15:12.605Z,1002.11
2018-04-27T01:16:12.601Z,1002.11
2018-04-27T01:17:12.613Z,1002.12
2018-04-27T01:18:12.636Z,1002.15
2018-04-27T01:19:12.645Z,1002.12
2018-04-27T01:20:12.654Z,1002.13
2018-04-27T01:21:12.671Z,1002.10
2018-04-27T01:22:12.707Z,1002.08
2018-04-27T01:23:12.721Z,1002.05
2018-04-27T01:24:12.729Z,1002.09
2018-04-27T01:25:12.733Z,1002.08
2018-04-27T01:26:12.750Z,1002.07
2018-04-27T01:27:12.760Z,1002.11
2018-04-27T01:28:12.790Z,1002.09
2018-04-27T01:29:12.837Z,1002.09
2018-04-27T01:30:12.815Z,1002.10
2018-04-27T01:31:12.827Z,1002.16
2018-04-27T01:32:12.847Z,1002.13
2018-04-27T01:33:12.869Z,1002.13
2018-04-27T01:34:12.878Z,1002.17
2018-04-27T01:35:12.962Z,1002.18
2018-04-27T01:36:12.919Z,1002.22
2018-04-27T01:37:12.938Z,1002.20
2018-04-27T01:38:12.937Z,1002.19
2018-04-27T01:39:12.955Z,1002.21
2018-04-27T01:40:12.976Z,1002.23
2018-04-27T01:41:12.991Z,1002.20
2018-04-27T01:42:13.091Z,1002.22
2018-04-27T01:43:13.103Z,1002.22
2018-04-27T01:44:13.094Z,1002.28
2018-04-27T01:45:13.056Z,1002.27
2018-04-27T01:46:13.059Z,1002.28
2018-04-27T01:47:13.076Z,1002.23
2018-04-27T01:48:13.103Z,1002.27
2018-04-27T01:49:13.119Z,1002.26
2018-04-27T01:50:13.120Z,1002.26
2018-04-27T01:51:13.138Z,1002.24
2018-04-27T01:52:13.164Z,1002.26
2018-04-27T01:53:13.237Z,1002.25
2018-04-27T01:54:13.220Z,1002.22
2018-04-27T01:55:13.209Z,1002.22
2018-04-27T01:56:13.277Z,1002.22
2018-04-27T01:57:13.254Z,1002.18
2018-04-27T01:58:13.285Z,1002.18
2018-04-27T01:59:13.272Z,1002.15
2018-04-27T02:00:13.283Z,1002.19
2018-04-27T02:01:13.293Z,1002.14
2018-04-27T02:02:13.326Z,1002.16
2018-04-27T02:03:13.322Z,1002.13
2018-04-27T02:04:13.431Z,1002.14
2018-04-27T02:05:13.362Z,1002.11
2018-04-27T02:06:13.380Z,1002.13
2018-04-27T02:07:13.395Z,1002.12
2018-04-27T02:08:13.404Z,1002.13
2018-04-27T02:09:13.422Z,1002.11
2018-04-27T02:10:13.433Z,1002.12
2018-04-27T02:11:13.477Z,1002.10
2018-04-27T02:12:13.490Z,1002.15
2018-04-27T02:13:13.514Z,1002.09
2018-04-27T02:14:13.496Z,1002.13
2018-04-27T02:15:13.533Z,1002.11
2018-04-27T02:16:13.528Z,1002.08
2018-04-27T02:17:13.567Z,1002.08
2018-04-27T02:18:13.622Z,1002.12
2018-04-27T02:19:13.577Z,1002.06
2018-04-27T02:20:13.591Z,1002.05
2018-04-27T02:21:13.627Z,1002.06
2018-04-27T02:22:13.626Z,1001.99
2018-04-27T02:23:13.722Z,1001.99
2018-04-27T02:24:13.651Z,1001.97
2018-04-27T02:25:13.814Z,1001.94
2018-04-27T02:26:13.694Z,1001.93
2018-04-27T02:27:13.701Z,1001.86
2018-04-27T02:28:13.746Z,1001.91
2018-04-27T02:29:13.843Z,1001.88
2018-04-27T02:30:13.752Z,1001.87
2018-04-27T02:31:13.755Z,1001.88
2018-04-27T02:32:13.775Z,1001.85
2018-04-27T02:33:13.800Z,1001.85
2018-04-27T02:34:13.846Z,1001.84
2018-04-27T02:35:13.816Z,1001.85
2018-04-27T02:36:13.841Z,1001.85
2018-04-27T02:37:13.868Z,1001.83
2018-04-27T02:38:13.875Z,1001.83
2018-04-27T02:39:13.891Z,1001.84
2018-04-27T02:40:13.897Z,1001.87
2018-04-27T02:41:13.923Z,1001.86
2018-04-27T02:42:13.928Z,1001.85
2018-04-27T02:43:13.949Z,1001.85
2018-04-27T02:44:13.963Z,1001.85
2018-04-27T02:45:14.020Z,1001.82
2018-04-27T02:46:13.988Z,1001.80
2018-04-27T02:47:14.069Z,1001.78
2018-04-27T02:48:14.070Z,1001.76
2018-04-27T02:49:14.073Z,1001.76
2018-04-27T02:50:14.069Z,1001.73
2018-04-27T02:51:14.094Z,1001.75
2018-04-27T02:52:14.086Z,1001.74
2018-04-27T02:53:14.102Z,1001.79
2018-04-27T02:54:14.153Z,1001.76
2018-04-27T02:55:14.126Z,1001.74
2018-04-27T02:56:14.145Z,1001.72
2018-04-27T02:57:14.164Z,1001.71
2018-04-27T02:58:14.177Z,1001.69
2018-04-27T02:59:14.197Z,1001.65
2018-04-27T03:00:14.217Z,1001.66
2018-04-27T03:01:14.264Z,1001.65
2018-04-27T03:02:14.263Z,1001.61
2018-04-27T03:03:14.259Z,1001.57
2018-04-27T03:04:14.273Z,1001.57
2018-04-27T03:05:14.316Z,1001.56
2018-04-27T03:06:14.308Z,1001.56
2018-04-27T03:07:14.307Z,1001.56
2018-04-27T03:08:14.389Z,1001.57
2018-04-27T03:09:14.344Z,1001.58
2018-04-27T03:10:14.357Z,1001.56
2018-04-27T03:11:14.376Z,1001.59
2018-04-27T03:12:14.397Z,1001.56
2018-04-27T03:13:14.400Z,1001.56
2018-04-27T03:14:14.416Z,1001.54
2018-04-27T03:15:14.431Z,1001.56
2018-04-27T03:16:14.589Z,1001.54
2018-04-27T03:17:14.470Z,1001.55
2018-04-27T03:18:14.515Z,1001.59
2018-04-27T03:19:14.579Z,1001.61
2018-04-27T03:20:14.575Z,1001.57
2018-04-27T03:21:14.580Z,1001.58
2018-04-27T03:22:14.540Z,1001.54
2018-04-27T03:23:14.687Z,1001.58
2018-04-27T03:24:14.573Z,1001.56
2018-04-27T03:25:14.590Z,1001.55
2018-04-27T03:26:14.619Z,1001.54
2018-04-27T03:27:14.619Z,1001.55
2018-04-27T03:28:14.637Z,1001.55
2018-04-27T03:29:14.653Z,1001.53
2018-04-27T03:30:14.666Z,1001.54
2018-04-27T03:31:14.752Z,1001.54
2018-04-27T03:32:14.689Z,1001.54
2018-04-27T03:33:14.730Z,1001.52
2018-04-27T03:34:14.776Z,1001.57
2018-04-27T03:35:14.734Z,1001.54
2018-04-27T03:36:14.753Z,1001.56
2018-04-27T03:37:14.832Z,1001.48
2018-04-27T03:38:14.787Z,1001.54
2018-04-27T03:39:14.797Z,1001.53
2018-04-27T03:40:14.910Z,1001.53
2018-04-27T03:41:14.870Z,1001.54
2018-04-27T03:42:14.845Z,1001.56
2018-04-27T03:43:14.860Z,1001.56
2018-04-27T03:44:14.883Z,1001.58
2018-04-27T03:45:14.885Z,1001.61
2018-04-27T03:46:14.921Z,1001.57
2018-04-27T03:47:14.927Z,1001.54
2018-04-27T03:48:14.940Z,1001.54
2018-04-27T03:49:14.943Z,1001.50
2018-04-27T03:50:14.959Z,1001.54
2018-04-27T03:51:15.008Z,1001.51
2018-04-27T03:52:15.005Z,1001.48
2018-04-27T03:53:15.039Z,1001.46
2018-04-27T03:54:15.030Z,1001.47
2018-04-27T03:55:15.054Z,1001.47
2018-04-27T03:56:15.058Z,1001.50
2018-04-27T03:57:15.084Z,1001.40
2018-04-27T03:58:15.083Z,1001.43
2018-04-27T03:59:15.122Z,1001.44
2018-04-27T04:00:15.132Z,1001.46
2018-04-27T04:01:15.171Z,1001.41
2018-04-27T04:02:15.152Z,1001.43
2018-04-27T04:03:15.173Z,1001.44
2018-04-27T04:04:15.174Z,1001.44
2018-04-27T04:05:15.232Z,1001.43
2018-04-27T04:06:15.207Z,1001.44
2018-04-27T04:07:15.230Z,1001.44
2018-04-27T04:08:15.256Z,1001.47
2018-04-27T04:09:15.349Z,1001.49
2018-04-27T04:10:15.272Z,1001.49
2018-04-27T04:11:15.295Z,1001.43
2018-04-27T04:12:15.319Z,1001.43
2018-04-27T04:13:15.340Z,1001.42
2018-04-27T04:14:15.376Z,1001.39
2018-04-27T04:15:15.344Z,1001.41
2018-04-27T04:16:15.414Z,1001.43
2018-04-27T04:17:15.380Z,1001.41
2018-04-27T04:18:15.400Z,1001.38
2018-04-27T04:19:15.497Z,1001.40
2018-04-27T04:20:15.422Z,1001.41
2018-04-27T04:21:15.446Z,1001.37
2018-04-27T04:22:15.460Z,1001.38
2018-04-27T04:23:15.479Z,1001.36
2018-04-27T04:24:15.515Z,1001.34
2018-04-27T04:25:15.525Z,1001.33
2018-04-27T04:26:15.574Z,1001.38
2018-04-27T04:27:15.548Z,1001.35
2018-04-27T04:28:15.590Z,1001.40
2018-04-27T04:29:15.580Z,1001.41
2018-04-27T04:30:15.616Z,1001.42
2018-04-27T04:31:15.593Z,1001.39
2018-04-27T04:32:15.624Z,1001.43
2018-04-27T04:33:15.661Z,1001.43
2018-04-27T04:34:15.668Z,1001.46
2018-04-27T04:35:15.657Z,1001.46
2018-04-27T04:36:15.677Z,1001.46
2018-04-27T04:37:15.703Z,1001.49
2018-04-27T04:38:15.718Z,1001.53
2018-04-27T04:39:15.760Z,1001.51
2018-04-27T04:40:15.735Z,1001.52
2018-04-27T04:41:15.770Z,1001.55
2018-04-27T04:42:15.785Z,1001.56
2018-04-27T04:43:15.843Z,1001.60
2018-04-27T04:44:15.814Z,1001.55
2018-04-27T04:45:15.812Z,1001.53
2018-04-27T04:46:15.837Z,1001.54
2018-04-27T04:47:15.857Z,1001.55
2018-04-27T04:48:15.860Z,1001.55
2018-04-27T04:49:15.875Z,1001.53
2018-04-27T04:50:15.907Z,1001.54
2018-04-27T04:51:15.908Z,1001.52
2018-04-27T04:52:15.923Z,1001.55
2018-04-27T04:53:15.990Z,1001.53
2018-04-27T04:54:15.989Z,1001.54
2018-04-27T04:55:16.076Z,1001.53
2018-04-27T04:56:15.997Z,1001.55
2018-04-27T04:57:16.004Z,1001.58
2018-04-27T04:58:16.092Z,1001.59
2018-04-27T04:59:16.039Z,1001.61
2018-04-27T05:00:16.053Z,1001.59
2018-04-27T05:01:16.067Z,1001.58
2018-04-27T05:02:16.088Z,1001.60
2018-04-27T05:03:16.099Z,1001.67
2018-04-27T05:04:16.114Z,1001.70
2018-04-27T05:05:16.127Z,1001.77
2018-04-27T05:06:16.370Z,1001.83
2018-04-27T05:07:16.215Z,1001.92
2018-04-27T05:08:16.182Z,1001.98
2018-04-27T05:09:16.219Z,1002.02
2018-04-27T05:10:16.296Z,1001.87
2018-04-27T05:11:16.230Z,1001.88
2018-04-27T05:12:16.251Z,1001.98
2018-04-27T05:13:16.272Z,1002.00
2018-04-27T05:14:16.385Z,1001.99
2018-04-27T05:15:16.322Z,1001.90
2018-04-27T05:16:16.313Z,1002.03
2018-04-27T05:17:16.410Z,1002.05
2018-04-27T05:18:16.507Z,1002.20
2018-04-27T05:19:16.433Z,1002.31
2018-04-27T05:20:16.454Z,1002.22
2018-04-27T05:21:16.459Z,1002.07
2018-04-27T05:22:16.434Z,1001.99
2018-04-27T05:23:16.472Z,1002.08
2018-04-27T05:24:16.575Z,1002.04
2018-04-27T05:25:16.476Z,1001.97
2018-04-27T05:26:16.578Z,1001.96
2018-04-27T05:27:16.520Z,1001.97
2018-04-27T05:28:16.614Z,1002.20
2018-04-27T05:29:16.584Z,1002.23
2018-04-27T05:30:16.575Z,1002.40
2018-04-27T05:31:16.589Z,1002.50
2018-04-27T05:32:16.619Z,1002.56
2018-04-27T05:33:16.761Z,1002.68
2018-04-27T05:34:16.649Z,1002.79
2018-04-27T05:35:16.663Z,1002.84
2018-04-27T05:36:16.855Z,1002.81
2018-04-27T05:37:16.811Z,1002.88
2018-04-27T05:38:16.753Z,1002.92
2018-04-27T05:39:16.750Z,1002.97
2018-04-27T05:40:16.915Z,1002.92
2018-04-27T05:41:16.789Z,1002.89
2018-04-27T05:42:16.861Z,1002.85
2018-04-27T05:43:16.831Z,1002.86
2018-04-27T05:44:16.932Z,1002.91
2018-04-27T05:45:17.052Z,1002.89
2018-04-27T05:46:16.922Z,1002.95
2018-04-27T05:47:16.920Z,1003.01
2018-04-27T05:48:17.090Z,1003.06
2018-04-27T05:49:16.980Z,1003.16
2018-04-27T05:50:16.980Z,1003.26
2018-04-27T05:51:17.013Z,1003.30
2018-04-27T05:52:17.022Z,1003.38
2018-04-27T05:53:17.046Z,1003.49
2018-04-27T05:54:17.077Z,1003.51
2018-04-27T05:55:17.169Z,1003.46
2018-04-27T05:56:17.146Z,1003.23
2018-04-27T05:57:17.144Z,1003.19
2018-04-27T05:58:17.176Z,1003.35
2018-04-27T05:59:17.199Z,1003.96
2018-04-27T06:00:17.255Z,1003.82
2018-04-27T06:01:17.240Z,1004.09
2018-04-27T06:02:17.320Z,1004.30
2018-04-27T06:03:17.292Z,1004.31
2018-04-27T06:04:17.315Z,1004.47
2018-04-27T06:05:17.434Z,1004.44
2018-04-27T06:06:17.358Z,1004.46
2018-04-27T06:07:17.383Z,1004.46
2018-04-27T06:08:17.412Z,1004.62
2018-04-27T06:09:17.436Z,1004.40
2018-04-27T06:10:17.576Z,1004.48
2018-04-27T06:11:17.482Z,1004.78
2018-04-27T06:12:17.505Z,1005.10
2018-04-27T06:13:17.529Z,1005.36
2018-04-27T06:14:17.557Z,1005.56
2018-04-27T06:15:17.621Z,1005.83
2018-04-27T06:16:17.603Z,1005.97
2018-04-27T06:17:17.665Z,1006.13
2018-04-27T06:18:17.691Z,1006.10
2018-04-27T06:19:17.747Z,1005.76
2018-04-27T06:20:17.712Z,1006.32
2018-04-27T06:21:17.786Z,1006.74
2018-04-27T06:22:17.772Z,1005.94
2018-04-27T06:23:17.830Z,1005.61
2018-04-27T06:24:17.844Z,1006.10
2018-04-27T06:25:17.831Z,1005.69
2018-04-27T06:26:17.996Z,1006.75
2018-04-27T06:27:17.905Z,1007.38
2018-04-27T06:28:17.953Z,1007.02
2018-04-27T06:29:17.949Z,1007.42
2018-04-27T06:30:17.952Z,1007.81
2018-04-27T06:31:18.060Z,1005.95
2018-04-27T06:32:18.035Z,1008.76
2018-04-27T06:33:18.037Z,1009.56
2018-04-27T06:34:18.115Z,1010.15
2018-04-27T06:35:18.108Z,1006.81
2018-04-27T06:36:18.131Z,1009.79
2018-04-27T06:37:18.239Z,1009.17
2018-04-27T06:38:18.168Z,1008.71
2018-04-27T06:39:18.191Z,1009.02
2018-04-27T06:40:18.404Z,1008.34
2018-04-27T06:41:18.281Z,1008.51
2018-04-27T06:42:18.266Z,1008.31
2018-04-27T06:43:18.288Z,1009.34
2018-04-27T06:44:18.290Z,1009.86
2018-04-27T06:45:18.316Z,1010.08
2018-04-27T06:46:18.357Z,1009.46
2018-04-27T06:47:18.371Z,1009.84
2018-04-27T06:48:18.405Z,1008.58
2018-04-27T06:49:18.431Z,1008.87
2018-04-27T06:50:18.468Z,1010.01
2018-04-27T06:51:18.488Z,1011.02
2018-04-27T06:52:18.574Z,1011.44
2018-04-27T06:53:18.559Z,1011.87
2018-04-27T06:54:18.630Z,1012.64
2018-04-27T06:55:18.712Z,1012.76
2018-04-27T06:56:18.683Z,1013.52
2018-04-27T06:57:18.652Z,1015.42
2018-04-27T06:58:18.682Z,1012.09
2018-04-27T06:59:18.802Z,1010.81
2018-04-27T07:00:18.737Z,1013.64
2018-04-27T07:01:18.767Z,1016.79
2018-04-27T07:02:18.787Z,1010.89
2018-04-27T07:03:18.803Z,1017.64
2018-04-27T07:04:18.843Z,1016.25
2018-04-27T07:05:18.946Z,1016.14
2018-04-27T07:06:18.996Z,1016.38
2018-04-27T07:07:18.920Z,1018.22
2018-04-27T07:08:18.941Z,1018.77
2018-04-27T07:09:18.966Z,1019.52
2018-04-27T07:10:18.989Z,1018.00
2018-04-27T07:11:19.016Z,1017.08
2018-04-27T07:12:19.138Z,1019.22
2018-04-27T07:13:19.067Z,1021.58
2018-04-27T07:14:19.217Z,1021.31
2018-04-27T07:15:19.111Z,1020.55
2018-04-27T07:16:19.241Z,1017.59
2018-04-27T07:17:19.163Z,1017.21
2018-04-27T07:18:19.205Z,1016.79
2018-04-27T07:19:19.338Z,1024.08
2018-04-27T07:20:19.271Z,1025.25
2018-04-27T07:21:19.535Z,1023.88
2018-04-27T07:22:19.393Z,1024.84
2018-04-27T07:23:19.345Z,1025.32
2018-04-27T07:24:19.367Z,1025.64
2018-04-27T07:25:19.406Z,1027.74
2018-04-27T07:26:19.544Z,1024.79
2018-04-27T07:27:19.440Z,1021.42
2018-04-27T07:28:19.477Z,1019.67
2018-04-27T07:29:19.520Z,1021.94
2018-04-27T07:30:19.536Z,1024.49
2018-04-27T07:31:19.668Z,1024.68
2018-04-27T07:32:19.584Z,1023.32
2018-04-27T07:33:19.608Z,1020.64
2018-04-27T07:34:19.672Z,1024.68
2018-04-27T07:35:19.687Z,1029.18
2018-04-27T07:36:19.682Z,1029.71
2018-04-27T07:37:19.820Z,1030.07
2018-04-27T07:38:19.739Z,1029.49
2018-04-27T07:39:19.859Z,1027.05
2018-04-27T07:40:19.818Z,1026.41
2018-04-27T07:41:19.826Z,1023.84
2018-04-27T07:42:19.850Z,1021.39
2018-04-27T07:43:19.920Z,1022.59
2018-04-27T07:44:19.904Z,1027.72
2018-04-27T07:45:19.967Z,1026.69
2018-04-27T07:46:19.959Z,1027.64
2018-04-27T07:47:19.989Z,1030.97
2018-04-27T07:48:20.042Z,1027.62
2018-04-27T07:49:20.076Z,1030.15
2018-04-27T07:50:20.133Z,1030.52
2018-04-27T07:51:20.086Z,1028.70
2018-04-27T07:52:20.126Z,1026.90
2018-04-27T07:53:20.142Z,1027.34
2018-04-27T07:54:20.164Z,1030.48
2018-04-27T07:55:20.228Z,1029.53
2018-04-27T07:56:20.215Z,1031.43
2018-04-27T07:57:20.254Z,1033.25
2018-04-27T07:58:20.338Z,1031.55
2018-04-27T07:59:20.343Z,1031.09
2018-04-27T08:00:20.399Z,1031.62
2018-04-27T08:01:20.353Z,1030.72
2018-04-27T08:02:20.444Z,1026.61
2018-04-27T08:03:20.462Z,1026.44
2018-04-27T08:04:20.478Z,1021.93
2018-04-27T08:05:20.466Z,1028.31
2018-04-27T08:06:20.495Z,1023.27
2018-04-27T08:07:20.579Z,1021.94
2018-04-27T08:08:20.571Z,1020.45
2018-04-27T08:09:20.581Z,1021.88
2018-04-27T08:10:20.665Z,1025.85
2018-04-27T08:11:20.721Z,1026.40
2018-04-27T08:12:20.653Z,1029.34
2018-04-27T08:13:20.788Z,1029.15
2018-04-27T08:14:20.705Z,1027.29
2018-04-27T08:15:20.731Z,1028.77
2018-04-27T08:16:20.772Z,1028.47
2018-04-27T08:17:20.786Z,1028.20
2018-04-27T08:18:20.826Z,1028.82
2018-04-27T08:19:20.915Z,1025.36
2018-04-27T08:20:20.899Z,1024.31
2018-04-27T08:21:20.890Z,1022.30
2018-04-27T08:22:20.915Z,1022.80
2018-04-27T08:23:20.940Z,1023.70
2018-04-27T08:24:21.085Z,1025.35
2018-04-27T08:25:21.004Z,1022.82
2018-04-27T08:26:21.091Z,1022.16
2018-04-27T08:27:21.076Z,1022.55
2018-04-27T08:28:21.073Z,1014.88
2018-04-27T08:29:21.102Z,1002.62
2018-04-27T08:30:21.238Z,1001.17
2018-04-27T08:31:21.174Z,1001.05
2018-04-27T08:32:21.180Z,1001.06
2018-04-27T08:33:21.190Z,1001.05
2018-04-27T08:34:21.212Z,1001.02
2018-04-27T08:35:21.264Z,1001.08
2018-04-27T08:36:21.270Z,1001.10
2018-04-27T08:37:21.290Z,1001.07
2018-04-27T08:38:21.310Z,1001.08
2018-04-27T08:39:21.331Z,1001.07
2018-04-27T08:40:21.353Z,1001.12
2018-04-27T08:41:21.388Z,1001.13
2018-04-27T08:42:21.407Z,1001.11
2018-04-27T08:43:21.430Z,1001.14
2018-04-27T08:44:21.443Z,1001.19
2018-04-27T08:45:21.471Z,1001.24
2018-04-27T08:46:21.494Z,1001.25
2018-04-27T08:47:21.515Z,1001.32
2018-04-27T08:48:21.644Z,1001.37
2018-04-27T08:49:21.594Z,1001.37
2018-04-27T08:50:21.765Z,1001.35
2018-04-27T08:51:21.607Z,1001.32
2018-04-27T08:52:21.629Z,1001.26
2018-04-27T08:53:21.670Z,1001.24
2018-04-27T08:54:21.692Z,1001.23
2018-04-27T08:55:21.755Z,1001.19
2018-04-27T08:56:21.713Z,1001.20
2018-04-27T08:57:21.745Z,1001.18
2018-04-27T08:58:21.748Z,1001.16
2018-04-27T08:59:21.790Z,1001.11
2018-04-27T09:00:21.801Z,1001.13
2018-04-27T09:01:21.829Z,1001.12
2018-04-27T09:02:21.890Z,1001.17
2018-04-27T09:03:22.104Z,1001.13
2018-04-27T09:04:21.891Z,1001.08
2018-04-27T09:05:21.912Z,1001.10
2018-04-27T09:06:22.009Z,1001.12
2018-04-27T09:07:21.947Z,1001.10
2018-04-27T09:08:22.013Z,1001.11
2018-04-27T09:09:22.010Z,1001.06
2018-04-27T09:10:22.023Z,1001.10
2018-04-27T09:11:22.093Z,1001.05
2018-04-27T09:12:22.059Z,1001.08
2018-04-27T09:13:22.108Z,1001.06
2018-04-27T09:14:22.102Z,1001.11
2018-04-27T09:15:22.158Z,1001.06
2018-04-27T09:16:22.173Z,1001.04
2018-04-27T09:17:22.167Z,1001.08
2018-04-27T09:18:22.225Z,1001.05
2018-04-27T09:19:22.211Z,1001.09
2018-04-27T09:20:22.231Z,1001.03
2018-04-27T09:21:22.262Z,1001.03
2018-04-27T09:22:22.277Z,1001.07
2018-04-27T09:23:22.526Z,1001.01
2018-04-27T09:24:22.322Z,1001.03
2018-04-27T09:25:22.484Z,1001.06
2018-04-27T09:26:22.484Z,1001.02
2018-04-27T09:27:22.467Z,1000.99
2018-04-27T09:28:22.452Z,1000.95
2018-04-27T09:29:22.475Z,1000.94
2018-04-27T09:30:22.548Z,1000.92
2018-04-27T09:31:22.480Z,1000.91
2018-04-27T09:32:22.513Z,1000.90
2018-04-27T09:33:22.618Z,1000.87
2018-04-27T09:34:22.546Z,1000.88
2018-04-27T09:35:22.560Z,1000.88
2018-04-27T09:36:22.591Z,1000.87
2018-04-27T09:37:22.608Z,1000.90
2018-04-27T09:38:22.660Z,1000.92
2018-04-27T09:39:22.720Z,1000.93
2018-04-27T09:40:22.671Z,1000.95
2018-04-27T09:41:22.703Z,1000.97
2018-04-27T09:42:22.722Z,1000.96
2018-04-27T09:43:22.748Z,1000.98
2018-04-27T09:44:22.766Z,1000.97
2018-04-27T09:45:22.791Z,1000.93
2018-04-27T09:46:22.841Z,1000.88
2018-04-27T09:47:22.843Z,1000.86
2018-04-27T09:48:22.848Z,1000.92
2018-04-27T09:49:22.939Z,1000.88
2018-04-27T09:50:22.898Z,1000.87
2018-04-27T09:51:22.913Z,1000.87
2018-04-27T09:52:22.941Z,1000.81
2018-04-27T09:53:22.959Z,1000.81
2018-04-27T09:54:22.981Z,1000.76
2018-04-27T09:55:23.000Z,1000.78
2018-04-27T09:56:23.022Z,1000.70
2018-04-27T09:57:23.091Z,1000.71
2018-04-27T09:58:23.072Z,1000.73
2018-04-27T09:59:23.118Z,1000.68
2018-04-27T10:00:23.113Z,1000.66
2018-04-27T10:01:23.146Z,1000.60
2018-04-27T10:02:23.168Z,1000.64
2018-04-27T10:03:23.186Z,1000.56
2018-04-27T10:04:23.206Z,1000.56
2018-04-27T10:05:23.220Z,1000.55
2018-04-27T10:06:23.249Z,1000.51
2018-04-27T10:07:23.384Z,1000.43
2018-04-27T10:08:23.345Z,1000.36
2018-04-27T10:09:23.309Z,1000.39
2018-04-27T10:10:23.457Z,1000.38
2018-04-27T10:11:23.356Z,1000.34
2018-04-27T10:12:23.392Z,1000.33
2018-04-27T10:13:23.412Z,1000.31
2018-04-27T10:14:23.456Z,1000.32
2018-04-27T10:15:23.452Z,1000.23
2018-04-27T10:16:23.544Z,1000.20
2018-04-27T10:17:23.515Z,1000.21
2018-04-27T10:18:23.516Z,1000.16
2018-04-27T10:19:23.537Z,1000.14
2018-04-27T10:20:23.601Z,1000.08
2018-04-27T10:21:23.633Z,1000.04
2018-04-27T10:22:23.607Z,1000.02
2018-04-27T10:23:23.665Z,1000.03
2018-04-27T10:24:23.683Z,1000.01
2018-04-27T10:25:23.667Z,1000.00
2018-04-27T10:26:23.738Z,1000.02
2018-04-27T10:27:23.725Z,999.95
2018-04-27T10:28:23.731Z,999.93
2018-04-27T10:29:23.798Z,999.96
2018-04-27T10:30:23.788Z,999.92
2018-04-27T10:31:23.917Z,999.92
2018-04-27T10:32:23.831Z,999.92
2018-04-27T10:33:23.849Z,999.90
2018-04-27T10:34:23.889Z,999.90
2018-04-27T10:35:23.890Z,999.84
2018-04-27T10:36:23.916Z,999.78
2018-04-27T10:37:23.945Z,999.77
2018-04-27T10:38:23.967Z,999.72
2018-04-27T10:39:23.997Z,999.74
2018-04-27T10:40:24.004Z,999.70
2018-04-27T10:41:24.061Z,999.72
2018-04-27T10:42:24.051Z,999.76
2018-04-27T10:43:24.079Z,999.73
2018-04-27T10:44:24.235Z,999.75
2018-04-27T10:45:24.119Z,999.72
2018-04-27T10:46:24.159Z,999.70
2018-04-27T10:47:24.158Z,999.67
2018-04-27T10:48:24.236Z,999.60
2018-04-27T10:49:24.199Z,999.61
2018-04-27T10:50:24.233Z,999.56
2018-04-27T10:51:24.301Z,999.57
2018-04-27T10:52:24.360Z,999.58
2018-04-27T10:53:24.338Z,999.64
2018-04-27T10:54:24.311Z,999.71
2018-04-27T10:55:24.422Z,999.69
2018-04-27T10:56:24.356Z,999.69
2018-04-27T10:57:24.504Z,999.72
2018-04-27T10:58:24.406Z,999.68
2018-04-27T10:59:24.424Z,999.63
2018-04-27T11:00:24.443Z,999.61
2018-04-27T11:01:24.574Z,999.50
2018-04-27T11:02:24.485Z,999.47
2018-04-27T11:03:24.641Z,999.46
2018-04-27T11:04:24.557Z,999.41
2018-04-27T11:05:24.594Z,999.41
2018-04-27T11:06:24.572Z,999.42
2018-04-27T11:07:24.602Z,999.42
2018-04-27T11:08:24.619Z,999.39
2018-04-27T11:09:24.672Z,999.38
2018-04-27T11:10:24.756Z,999.34
2018-04-27T11:11:24.724Z,999.31
2018-04-27T11:12:24.791Z,999.31
2018-04-27T11:13:24.741Z,999.27
2018-04-27T11:14:24.756Z,999.22
2018-04-27T11:15:24.778Z,999.24
2018-04-27T11:16:24.799Z,999.22
2018-04-27T11:17:24.829Z,999.24
2018-04-27T11:18:25.032Z,999.29
2018-04-27T11:19:24.868Z,999.22
2018-04-27T11:20:24.948Z,999.27
2018-04-27T11:21:24.968Z,999.28
2018-04-27T11:22:24.938Z,999.29
2018-04-27T11:23:24.986Z,999.26
2018-04-27T11:24:25.008Z,999.17
2018-04-27T11:25:24.996Z,999.17
2018-04-27T11:26:25.029Z,999.17
2018-04-27T11:27:25.041Z,999.14
2018-04-27T11:28:25.077Z,999.10
2018-04-27T11:29:25.107Z,999.04
2018-04-27T11:30:25.145Z,999.03
2018-04-27T11:31:25.132Z,999.00
2018-04-27T11:32:25.164Z,999.03
2018-04-27T11:33:25.180Z,999.04
2018-04-27T11:34:25.325Z,999.06
2018-04-27T11:35:25.235Z,999.07
2018-04-27T11:36:25.304Z,999.08
2018-04-27T11:37:25.263Z,999.08
2018-04-27T11:38:25.405Z,999.04
2018-04-27T11:39:25.461Z,999.02
2018-04-27T11:40:25.361Z,998.96
2018-04-27T11:41:25.365Z,998.97
2018-04-27T11:42:25.374Z,998.91
2018-04-27T11:43:25.397Z,998.90
2018-04-27T11:44:25.412Z,998.93
2018-04-27T11:45:25.446Z,998.95
2018-04-27T11:46:25.468Z,998.89
2018-04-27T11:47:25.608Z,998.93
2018-04-27T11:48:25.505Z,998.90
2018-04-27T11:49:25.522Z,998.88
2018-04-27T11:50:25.566Z,998.89
2018-04-27T11:51:25.568Z,998.86
2018-04-27T11:52:25.634Z,998.83
2018-04-27T11:53:25.638Z,998.85
2018-04-27T11:54:25.688Z,998.84
2018-04-27T11:55:25.657Z,998.82
2018-04-27T11:56:25.674Z,998.79
2018-04-27T11:57:25.698Z,998.76
2018-04-27T11:58:25.725Z,998.70
2018-04-27T11:59:25.745Z,998.72
2018-04-27T12:00:25.770Z,998.63
2018-04-27T12:01:25.895Z,998.66
2018-04-27T12:02:25.854Z,998.58
2018-04-27T12:03:25.852Z,998.63
2018-04-27T12:04:25.948Z,998.56
2018-04-27T12:05:25.923Z,998.61
2018-04-27T12:06:25.927Z,998.59
2018-04-27T12:07:26.021Z,998.58
2018-04-27T12:08:26.023Z,998.54